createdAt,value
2022-11-02T00:01:54.467Z,94.30
2022-11-02T00:04:24.152Z,94.36
2022-11-02T00:06:53.030Z,94.02
2022-11-02T00:09:21.815Z,94.02
2022-11-02T00:11:50.668Z,94.36
2022-11-02T00:14:19.934Z,94.40
2022-11-02T00:16:49.513Z,94.51
2022-11-02T00:19:18.330Z,94.49
2022-11-02T00:21:47.765Z,94.51
2022-11-02T00:24:16.769Z,94.48
2022-11-02T00:26:46.785Z,94.45
2022-11-02T00:29:15.624Z,94.44
2022-11-02T00:31:44.351Z,94.46
2022-11-02T00:34:14.359Z,94.41
2022-11-02T00:36:43.162Z,94.41
2022-11-02T00:39:12.220Z,94.42
2022-11-02T00:41:40.933Z,94.36
2022-11-02T00:44:09.802Z,94.44
2022-11-02T00:46:39.818Z,94.45
2022-11-02T00:49:08.619Z,94.46
2022-11-02T00:51:38.416Z,94.48
2022-11-02T00:54:08.009Z,94.56
2022-11-02T00:56:38.703Z,94.52
2022-11-02T00:59:08.154Z,94.53
2022-11-02T01:01:38.542Z,94.56
2022-11-02T01:04:07.787Z,94.55
2022-11-02T01:06:38.462Z,94.55
2022-11-02T01:09:07.505Z,94.61
2022-11-02T01:11:36.786Z,94.59
2022-11-02T01:14:05.688Z,94.59
2022-11-02T01:16:35.833Z,94.62
2022-11-02T01:19:04.805Z,94.58
2022-11-02T01:21:33.907Z,94.63
2022-11-02T01:24:04.707Z,94.66
2022-11-02T01:26:34.559Z,94.69
2022-11-02T01:29:03.496Z,94.69
2022-11-02T01:31:36.093Z,94.74
2022-11-02T01:34:05.737Z,94.74
2022-11-02T01:36:36.007Z,94.77
2022-11-02T01:39:05.469Z,94.72
2022-11-02T01:41:35.791Z,94.80
2022-11-02T01:44:22.385Z,94.80
2022-11-02T01:46:54.658Z,94.80
2022-11-02T01:49:25.799Z,94.85
2022-11-02T01:52:00.311Z,94.87
2022-11-02T01:54:37.937Z,94.92
2022-11-02T01:57:10.780Z,94.93
2022-11-02T01:59:47.093Z,95.01
2022-11-02T02:02:20.951Z,95.01
2022-11-02T02:04:50.531Z,95.04
2022-11-02T02:07:23.821Z,94.98
2022-11-02T02:09:54.419Z,95.00
2022-11-02T02:12:25.149Z,95.11
2022-11-02T02:14:54.611Z,95.16
2022-11-02T02:17:37.586Z,95.17
2022-11-02T02:20:15.583Z,95.18
2022-11-02T02:23:16.324Z,95.23
2022-11-02T02:26:08.947Z,95.28
2022-11-02T02:28:44.972Z,95.32
2022-11-02T02:31:24.729Z,95.37
2022-11-02T02:33:59.522Z,95.38
2022-11-02T02:36:35.086Z,95.48
2022-11-02T02:39:11.045Z,95.47
2022-11-02T02:41:43.592Z,95.50
2022-11-02T02:44:17.959Z,95.55
2022-11-02T02:46:55.943Z,95.59
2022-11-02T02:49:31.140Z,95.59
2022-11-02T02:52:02.911Z,95.67
2022-11-02T02:54:36.337Z,95.71
2022-11-02T02:57:11.142Z,95.71
2022-11-02T02:59:43.222Z,95.72
2022-11-02T03:02:17.747Z,95.75
2022-11-02T03:04:48.675Z,95.82
2022-11-02T03:07:21.016Z,95.84
2022-11-02T03:09:59.471Z,95.59
2022-11-02T03:12:40.406Z,95.69
2022-11-02T03:15:18.042Z,95.71
2022-11-02T03:17:59.337Z,95.73
2022-11-02T03:20:39.281Z,95.80
2022-11-02T03:23:17.228Z,95.86
2022-11-02T03:25:54.273Z,95.86
2022-11-02T03:28:34.099Z,95.93
2022-11-02T03:31:12.950Z,95.95
2022-11-02T03:33:49.986Z,95.91
2022-11-02T03:36:22.735Z,96.04
2022-11-02T03:38:56.955Z,96.05
2022-11-02T03:41:28.182Z,96.12
2022-11-02T03:44:06.767Z,96.20
2022-11-02T03:46:41.421Z,96.23
2022-11-02T03:49:18.061Z,96.26
2022-11-02T03:51:49.428Z,96.20
2022-11-02T03:54:26.597Z,96.31
2022-11-02T03:57:01.439Z,96.29
2022-11-02T03:59:32.333Z,96.30
2022-11-02T04:02:04.644Z,96.32
2022-11-02T04:04:34.446Z,96.31
2022-11-02T04:07:03.810Z,96.33
2022-11-02T04:09:32.962Z,96.35
2022-11-02T04:12:21.192Z,96.34
2022-11-02T04:14:50.188Z,96.36
2022-11-02T04:17:38.698Z,96.42
2022-11-02T04:20:12.674Z,96.44
2022-11-02T04:22:59.860Z,96.43
2022-11-02T04:25:28.445Z,96.44
2022-11-02T04:28:09.021Z,96.46
2022-11-02T04:30:50.393Z,96.47
2022-11-02T04:33:32.512Z,96.47
2022-11-02T04:36:08.163Z,96.50
2022-11-02T04:38:40.745Z,96.46
2022-11-02T04:41:32.591Z,96.51
2022-11-02T04:44:01.961Z,96.57
2022-11-02T04:46:34.261Z,96.51
2022-11-02T04:49:04.701Z,96.57
2022-11-02T04:51:34.982Z,96.51
2022-11-02T04:54:07.616Z,96.56
2022-11-02T04:56:36.266Z,96.48
2022-11-02T04:59:05.375Z,96.58
2022-11-02T05:01:42.141Z,96.60
2022-11-02T05:04:11.250Z,96.65
2022-11-02T05:06:49.587Z,96.69
2022-11-02T05:09:23.147Z,96.67
2022-11-02T05:11:54.657Z,96.68
2022-11-02T05:14:24.301Z,96.66
2022-11-02T05:16:54.279Z,96.62
2022-11-02T05:19:23.745Z,96.63
2022-11-02T05:21:52.512Z,96.61
2022-11-02T05:24:22.310Z,96.60
2022-11-02T05:26:54.183Z,96.54
2022-11-02T05:29:25.560Z,96.51
2022-11-02T05:31:55.016Z,96.50
2022-11-02T05:34:24.819Z,96.19
2022-11-02T05:36:53.994Z,96.13
2022-11-02T05:39:23.716Z,96.07
2022-11-02T05:41:52.679Z,96.27
2022-11-02T05:44:22.874Z,96.16
2022-11-02T05:46:51.902Z,96.16
2022-11-02T05:49:20.699Z,96.14
2022-11-02T05:51:50.474Z,96.25
2022-11-02T05:54:19.188Z,96.27
2022-11-02T05:56:50.006Z,96.36
2022-11-02T05:59:18.913Z,96.39
2022-11-02T06:01:50.232Z,96.25
2022-11-02T06:04:20.394Z,96.20
2022-11-02T06:06:49.697Z,96.11
2022-11-02T06:09:21.718Z,96.21
2022-11-02T06:11:50.591Z,96.24
2022-11-02T06:14:23.377Z,96.08
2022-11-02T06:16:53.677Z,96.12
2022-11-02T06:19:24.330Z,96.05
2022-11-02T06:21:53.230Z,96.31
2022-11-02T06:24:25.785Z,96.26
2022-11-02T06:26:55.307Z,96.17
2022-11-02T06:29:24.913Z,95.97
2022-11-02T06:31:53.818Z,96.16
2022-11-02T06:34:22.900Z,96.11
2022-11-02T06:36:55.111Z,96.17
2022-11-02T06:39:24.288Z,96.14
2022-11-02T06:41:53.027Z,96.11
2022-11-02T06:44:24.713Z,96.22
2022-11-02T06:46:53.814Z,96.26
2022-11-02T06:49:23.187Z,96.16
2022-11-02T06:51:52.648Z,95.97
2022-11-02T06:54:21.390Z,96.22
2022-11-02T06:56:50.104Z,96.23
2022-11-02T06:59:19.132Z,96.32
2022-11-02T07:01:53.671Z,96.39
2022-11-02T07:04:22.673Z,96.28
2022-11-02T07:07:03.786Z,96.17
2022-11-02T07:09:32.924Z,96.29
2022-11-02T07:12:01.914Z,96.18
2022-11-02T07:14:30.915Z,96.26
2022-11-02T07:16:59.619Z,96.30
2022-11-02T07:19:29.200Z,96.27
2022-11-02T07:21:58.829Z,96.22
2022-11-02T07:24:27.842Z,96.15
2022-11-02T07:26:57.174Z,96.27
2022-11-02T07:29:26.583Z,96.28
2022-11-02T07:31:58.163Z,96.35
2022-11-02T07:34:26.919Z,96.31
2022-11-02T07:36:56.892Z,96.22
2022-11-02T07:39:27.575Z,96.17
2022-11-02T07:41:59.666Z,96.03
2022-11-02T07:44:30.508Z,95.76
2022-11-02T07:46:59.217Z,95.38
2022-11-02T07:49:28.479Z,95.16
2022-11-02T07:51:57.709Z,94.92
2022-11-02T07:54:26.679Z,94.42
2022-11-02T07:56:55.480Z,93.99
2022-11-02T07:59:24.208Z,93.34
2022-11-02T08:01:53.200Z,93.16
2022-11-02T08:06:57.927Z,92.15
2022-11-02T08:09:26.768Z,91.17
2022-11-02T08:12:10.910Z,90.98
2022-11-02T08:14:42.806Z,90.15
2022-11-02T08:17:12.299Z,90.05
2022-11-02T08:19:41.365Z,89.82
2022-11-02T08:22:10.357Z,90.17
2022-11-02T08:24:39.257Z,89.97
2022-11-02T08:27:08.000Z,89.49
2022-11-02T08:29:37.201Z,88.99
2022-11-02T08:32:06.749Z,88.99
2022-11-02T08:34:35.454Z,89.13
2022-11-02T08:37:06.731Z,88.79
2022-11-02T08:39:35.687Z,88.46
2022-11-02T08:42:04.820Z,88.07
2022-11-02T08:44:35.100Z,88.27
2022-11-02T08:47:09.347Z,87.79
2022-11-02T08:49:38.624Z,88.47
2022-11-02T08:52:07.305Z,88.80
2022-11-02T08:54:36.286Z,88.87
2022-11-02T08:57:05.094Z,88.31
2022-11-02T08:59:33.785Z,87.73
2022-11-02T09:02:02.891Z,87.66
2022-11-02T09:04:32.685Z,87.49
2022-11-02T09:07:01.521Z,87.67
2022-11-02T09:09:30.265Z,87.30
2022-11-02T09:11:58.999Z,87.56
2022-11-02T09:14:28.516Z,87.42
2022-11-02T09:16:57.393Z,87.21
2022-11-02T09:19:26.165Z,87.44
2022-11-02T09:21:54.935Z,87.78
2022-11-02T09:24:23.820Z,87.82
2022-11-02T09:26:53.825Z,87.03
2022-11-02T09:31:52.787Z,86.74
2022-11-02T09:34:21.993Z,87.16
2022-11-02T09:36:50.977Z,86.48
2022-11-02T09:39:24.229Z,87.19
2022-11-02T09:42:05.759Z,86.67
2022-11-02T09:44:47.471Z,86.91
2022-11-02T09:48:03.058Z,87.08
2022-11-02T09:50:13.936Z,86.70
2022-11-02T09:52:46.897Z,87.33
2022-11-02T09:55:23.040Z,87.59
2022-11-02T09:57:59.640Z,87.33
2022-11-02T10:00:33.392Z,87.20
2022-11-02T10:03:12.115Z,87.57
2022-11-02T10:05:43.348Z,87.25
2022-11-02T10:08:25.874Z,87.48
2022-11-02T10:11:07.916Z,87.59
2022-11-02T10:13:42.571Z,87.48
2022-11-02T10:16:17.529Z,87.36
2022-11-02T10:18:49.943Z,87.07
2022-11-02T10:21:23.478Z,87.06
2022-11-02T10:23:54.033Z,86.94
2022-11-02T10:26:33.349Z,87.37
2022-11-02T10:29:06.879Z,87.52
2022-11-02T10:31:39.661Z,87.20
2022-11-02T10:34:19.615Z,87.20
2022-11-02T10:37:00.368Z,86.83
2022-11-02T10:39:41.860Z,86.57
2022-11-02T10:42:30.407Z,86.39
2022-11-02T10:45:20.929Z,86.31
2022-11-02T10:48:02.426Z,86.18
2022-11-02T10:50:46.550Z,86.26
2022-11-02T10:53:40.238Z,86.04
2022-11-02T10:56:14.197Z,85.55
2022-11-02T10:58:49.698Z,85.67
2022-11-02T11:01:18.784Z,83.85
2022-11-02T11:03:59.759Z,83.14
2022-11-02T11:06:31.704Z,83.43
2022-11-02T11:09:03.962Z,82.78
2022-11-02T11:11:36.047Z,83.01
2022-11-02T11:19:52.519Z,82.44
2022-11-02T11:22:28.341Z,80.97
2022-11-02T11:25:26.756Z,80.85
2022-11-02T11:27:58.068Z,81.03
2022-11-02T11:33:21.044Z,80.76
2022-11-02T11:35:51.467Z,80.09
2022-11-02T11:38:27.715Z,79.74
2022-11-02T11:41:04.484Z,80.56
2022-11-02T11:43:41.426Z,80.41
2022-11-02T11:46:13.546Z,80.09
2022-11-02T11:48:47.259Z,80.07
2022-11-02T11:51:32.758Z,80.39
2022-11-02T11:54:31.529Z,80.98
2022-11-02T11:57:16.933Z,81.13
2022-11-02T11:59:48.985Z,81.02
2022-11-02T12:02:24.384Z,81.13
2022-11-02T12:05:00.509Z,80.52
2022-11-02T12:08:14.977Z,79.93
2022-11-02T12:11:00.664Z,79.34
2022-11-02T12:13:51.001Z,80.01
2022-11-02T12:16:36.857Z,79.30
2022-11-02T12:19:20.863Z,80.20
2022-11-02T12:22:02.304Z,79.69
2022-11-02T12:25:03.487Z,78.42
2022-11-02T12:27:43.146Z,78.95
2022-11-02T12:30:16.900Z,79.35
2022-11-02T12:33:19.069Z,78.52
2022-11-02T12:36:08.144Z,78.25
2022-11-02T12:39:07.271Z,79.11
2022-11-02T12:41:50.807Z,79.34
2022-11-02T12:44:47.951Z,78.72
2022-11-02T12:47:32.469Z,78.34
2022-11-02T12:50:18.856Z,78.29
2022-11-02T12:53:04.469Z,78.55
2022-11-02T12:55:38.866Z,78.73
2022-11-02T12:58:15.822Z,78.62
2022-11-02T13:00:54.182Z,78.39
2022-11-02T13:03:41.185Z,78.37
2022-11-02T13:06:16.076Z,78.71
2022-11-02T13:08:52.443Z,78.24
2022-11-02T13:11:25.451Z,77.70
2022-11-02T13:13:59.028Z,77.42
2022-11-02T13:16:47.189Z,77.88
2022-11-02T13:19:23.742Z,78.18
2022-11-02T13:21:56.469Z,78.12
2022-11-02T13:24:33.780Z,77.86
2022-11-02T13:27:22.064Z,77.98
2022-11-02T13:30:00.316Z,78.42
2022-11-02T13:32:40.455Z,79.10
2022-11-02T13:35:20.487Z,78.81
2022-11-02T13:37:55.912Z,79.04
2022-11-02T13:40:31.571Z,79.11
2022-11-02T13:43:36.163Z,78.96
2022-11-02T13:46:38.943Z,78.81
2022-11-02T13:49:16.716Z,79.41
2022-11-02T13:51:50.030Z,79.34
2022-11-02T13:54:24.202Z,79.67
2022-11-02T13:56:55.942Z,80.04
2022-11-02T13:59:29.636Z,80.15
2022-11-02T14:02:04.722Z,80.45
2022-11-02T14:04:40.495Z,80.49
2022-11-02T14:07:24.181Z,80.94
2022-11-02T14:09:58.111Z,81.13
2022-11-02T14:12:29.577Z,81.36
2022-11-02T14:15:41.822Z,81.61
2022-11-02T14:18:30.407Z,81.91
2022-11-02T14:21:20.406Z,82.21
2022-11-02T14:23:49.730Z,82.43
2022-11-02T14:26:53.555Z,82.68
2022-11-02T14:29:51.545Z,82.75
2022-11-02T14:32:30.417Z,82.94
2022-11-02T14:35:14.800Z,83.30
2022-11-02T14:38:11.120Z,83.66
2022-11-02T14:40:58.591Z,83.74
2022-11-02T14:43:49.978Z,83.91
2022-11-02T14:46:41.319Z,84.23
2022-11-02T14:49:21.734Z,84.39
2022-11-02T14:52:03.934Z,84.34
2022-11-02T14:54:39.110Z,84.27
2022-11-02T14:57:25.796Z,84.31
2022-11-02T14:59:58.287Z,84.41
2022-11-02T15:02:36.145Z,84.56
2022-11-02T15:05:22.377Z,84.93
2022-11-02T15:07:55.068Z,85.03
2022-11-02T15:10:43.322Z,85.22
2022-11-02T15:13:49.870Z,84.93
2022-11-02T15:16:26.859Z,84.94
2022-11-02T15:19:43.390Z,85.08
2022-11-02T15:22:34.906Z,85.15
2022-11-02T15:25:12.645Z,85.62
2022-11-02T15:27:43.501Z,86.04
2022-11-02T15:30:16.305Z,86.48
2022-11-02T15:32:50.230Z,86.71
2022-11-02T15:35:22.902Z,86.61
2022-11-02T15:38:16.373Z,86.71
2022-11-02T15:40:51.411Z,86.92
2022-11-02T15:43:47.989Z,86.95
2022-11-02T15:46:36.841Z,87.16
2022-11-02T15:49:19.710Z,87.37
2022-11-02T15:51:56.251Z,87.35
2022-11-02T15:54:46.096Z,87.20
2022-11-02T15:57:24.748Z,87.29
2022-11-02T16:00:18.649Z,87.33
2022-11-02T16:02:49.161Z,87.43
2022-11-02T16:05:22.123Z,87.70
2022-11-02T16:10:42.983Z,87.45
2022-11-02T16:13:17.245Z,87.50
2022-11-02T16:15:48.610Z,87.94
2022-11-02T16:18:29.443Z,88.13
2022-11-02T16:21:01.622Z,88.27
2022-11-02T16:23:32.872Z,88.38
2022-11-02T16:26:04.216Z,88.51
2022-11-02T16:28:34.396Z,88.87
2022-11-02T16:31:15.844Z,88.68
2022-11-02T16:33:50.241Z,89.04
2022-11-02T16:36:21.931Z,89.25
2022-11-02T16:38:58.225Z,88.96
2022-11-02T16:41:28.997Z,88.85
2022-11-02T16:44:00.254Z,88.84
2022-11-02T16:46:41.700Z,88.76
2022-11-02T16:49:17.851Z,88.90
2022-11-02T16:51:52.067Z,88.94
2022-11-02T16:54:26.757Z,88.72
2022-11-02T16:56:58.559Z,88.88
2022-11-02T16:59:27.315Z,89.18
2022-11-02T17:02:01.175Z,89.56
2022-11-02T17:04:30.597Z,89.37
2022-11-02T17:07:12.450Z,89.63
2022-11-02T17:09:41.914Z,89.85
2022-11-02T17:12:16.766Z,89.87
2022-11-02T17:14:49.050Z,89.77
2022-11-02T17:17:40.064Z,89.77
2022-11-02T17:20:18.444Z,89.96
2022-11-02T17:22:53.624Z,90.17
2022-11-02T17:25:24.557Z,90.23
2022-11-02T17:27:54.569Z,90.54
2022-11-02T17:30:44.757Z,90.77
2022-11-02T17:33:27.976Z,90.85
2022-11-02T17:36:03.750Z,91.04
2022-11-02T17:38:33.462Z,91.31
2022-11-02T17:41:26.049Z,91.54
2022-11-02T17:43:54.943Z,91.97
2022-11-02T17:46:23.843Z,92.19
2022-11-02T17:48:52.692Z,92.43
2022-11-02T17:51:24.136Z,92.46
2022-11-02T17:53:53.016Z,92.45
2022-11-02T17:56:21.661Z,92.62
2022-11-02T17:58:50.326Z,92.59
2022-11-02T18:01:19.141Z,92.77
2022-11-02T18:03:48.758Z,92.61
2022-11-02T18:06:17.837Z,92.76
2022-11-02T18:09:05.737Z,92.80
2022-11-02T18:11:36.970Z,92.88
2022-11-02T18:14:06.134Z,92.75
2022-11-02T18:16:39.554Z,92.67
2022-11-02T18:19:08.664Z,92.36
2022-11-02T18:21:37.500Z,92.21
2022-11-02T18:24:07.265Z,92.01
2022-11-02T18:26:37.631Z,91.67
2022-11-02T18:29:07.790Z,91.44
2022-11-02T18:31:40.519Z,91.32
2022-11-02T18:34:10.202Z,91.18
2022-11-02T18:36:40.221Z,91.06
2022-11-02T18:39:09.332Z,90.79
2022-11-02T18:41:39.916Z,90.74
2022-11-02T18:44:14.834Z,90.55
2022-11-02T18:46:47.066Z,90.34
2022-11-02T18:49:15.746Z,90.14
2022-11-02T18:51:45.280Z,89.97
2022-11-02T18:54:14.891Z,89.68
2022-11-02T18:56:44.301Z,89.38
2022-11-02T18:59:13.531Z,89.22
2022-11-02T19:01:42.639Z,88.97
2022-11-02T19:04:16.936Z,88.93
2022-11-02T19:07:10.008Z,88.70
2022-11-02T19:09:41.105Z,88.62
2022-11-02T19:12:13.250Z,88.30
2022-11-02T19:14:43.372Z,88.12
2022-11-02T19:17:13.815Z,87.94
2022-11-02T19:19:45.194Z,87.97
2022-11-02T19:22:31.291Z,87.78
2022-11-02T19:25:02.102Z,87.46
2022-11-02T19:27:31.537Z,87.41
2022-11-02T19:30:01.520Z,87.40
2022-11-02T19:32:33.221Z,87.30
2022-11-02T19:35:04.008Z,87.14
2022-11-02T19:37:34.747Z,86.97
2022-11-02T19:40:07.032Z,86.78
2022-11-02T19:42:37.015Z,86.88
2022-11-02T19:45:16.162Z,86.67
2022-11-02T19:47:47.723Z,86.79
2022-11-02T19:50:17.127Z,86.56
2022-11-02T19:52:54.361Z,86.59
2022-11-02T19:55:28.234Z,86.54
2022-11-02T19:57:57.072Z,86.34
2022-11-02T20:00:29.310Z,86.37
2022-11-02T20:02:58.904Z,86.28
2022-11-02T20:05:28.157Z,86.36
2022-11-02T20:07:57.046Z,86.37
2022-11-02T20:10:25.899Z,86.42
2022-11-02T20:12:58.077Z,86.63
2022-11-02T20:15:26.906Z,86.81
2022-11-02T20:18:17.896Z,87.04
2022-11-02T20:20:47.729Z,87.22
2022-11-02T20:23:16.823Z,87.14
2022-11-02T20:25:48.548Z,87.33
2022-11-02T20:28:20.042Z,87.53
2022-11-02T20:30:48.953Z,87.59
2022-11-02T20:33:18.463Z,87.96
2022-11-02T20:35:48.931Z,88.16
2022-11-02T20:38:17.696Z,88.31
2022-11-02T20:40:47.363Z,88.41
2022-11-02T20:43:16.127Z,88.50
2022-11-02T20:45:44.825Z,88.62
2022-11-02T20:48:15.817Z,88.65
2022-11-02T20:50:46.740Z,88.80
2022-11-02T20:53:15.461Z,88.93
2022-11-02T20:55:44.366Z,89.12
2022-11-02T20:58:13.148Z,89.25
2022-11-02T21:00:42.343Z,89.20
2022-11-02T21:03:14.183Z,89.32
2022-11-02T21:05:43.476Z,89.36
2022-11-02T21:08:12.915Z,89.49
2022-11-02T21:10:41.683Z,89.50
2022-11-02T21:13:30.531Z,89.52
2022-11-02T21:16:03.983Z,89.59
2022-11-02T21:18:33.459Z,89.51
2022-11-02T21:21:06.873Z,89.52
2022-11-02T21:23:36.284Z,89.55
2022-11-02T21:26:07.129Z,89.55
2022-11-02T21:28:38.092Z,89.29
2022-11-02T21:31:10.277Z,89.37
2022-11-02T21:33:39.321Z,89.44
2022-11-02T21:36:09.404Z,89.42
2022-11-02T21:38:38.400Z,89.59
2022-11-02T21:41:09.093Z,89.61
2022-11-02T21:43:38.533Z,89.55
2022-11-02T21:46:07.240Z,89.48
2022-11-02T21:48:37.831Z,89.74
2022-11-02T21:51:09.046Z,89.90
2022-11-02T21:53:39.883Z,89.96
2022-11-02T21:56:11.366Z,89.94
2022-11-02T21:58:44.779Z,90.12
2022-11-02T22:01:39.002Z,90.00
2022-11-02T22:04:09.013Z,90.05
2022-11-02T22:06:38.110Z,90.00
2022-11-02T22:09:11.353Z,90.14
2022-11-02T22:11:40.363Z,90.39
2022-11-02T22:14:09.200Z,90.37
2022-11-02T22:16:41.119Z,90.76
2022-11-02T22:19:11.431Z,90.74
2022-11-02T22:21:41.619Z,90.71
2022-11-02T22:24:11.782Z,90.91
2022-11-02T22:26:40.778Z,91.05
2022-11-02T22:29:09.831Z,91.19
2022-11-02T22:31:41.082Z,91.15
2022-11-02T22:34:14.025Z,91.36
2022-11-02T22:36:45.197Z,91.48
2022-11-02T22:39:15.400Z,91.44
2022-11-02T22:41:46.335Z,91.29
2022-11-02T22:44:16.769Z,91.22
2022-11-02T22:46:47.676Z,91.11
2022-11-02T22:49:18.086Z,91.05
2022-11-02T22:51:49.644Z,90.91
2022-11-02T22:54:20.241Z,90.90
2022-11-02T22:56:49.420Z,90.91
2022-11-02T22:59:19.192Z,90.78
2022-11-02T23:01:51.039Z,90.46
2022-11-02T23:04:19.960Z,90.16
2022-11-02T23:06:48.826Z,89.94
2022-11-02T23:09:17.697Z,89.71
2022-11-02T23:11:47.190Z,89.55
2022-11-02T23:14:16.565Z,89.14
2022-11-02T23:16:47.315Z,89.01
2022-11-02T23:19:27.848Z,88.55
2022-11-02T23:22:17.628Z,88.57
2022-11-02T23:25:06.763Z,88.41
2022-11-02T23:27:58.266Z,88.19
2022-11-02T23:30:47.223Z,88.07
2022-11-02T23:33:16.048Z,87.86
2022-11-02T23:36:03.353Z,87.76
2022-11-02T23:38:48.031Z,87.84
2022-11-02T23:41:16.376Z,88.01
2022-11-02T23:43:48.162Z,87.69
2022-11-02T23:46:17.587Z,87.64
2022-11-02T23:48:54.465Z,87.56
2022-11-02T23:51:41.753Z,87.58
2022-11-02T23:54:28.966Z,87.56
2022-11-02T23:56:57.960Z,87.46
2022-11-02T23:59:26.645Z,87.51
